Time;durP1;ratioP1;P1;durP2;ratioP2;P2;SDS_P1;SDS_P2;PMS_P1;PMS_P2;Temp;Humidity;BMP_temperature;BMP_pressure;BME280_temperature;BME280_humidity;BME280_pressure;Samples;Min_cycle;Max_cycle;Signal;HPM_P1;HPM_P2
2021/07/30 00:01:21;;;;;;;1.90;1.80;;;24.70;54.40;;;;;;5100647;28;20296;-70
2021/07/30 00:03:52;;;;;;;2.20;2.00;;;24.70;54.40;;;;;;5101375;28;20358;-70
2021/07/30 00:06:28;;;;;;;2.30;2.00;;;24.70;54.40;;;;;;5100423;28;20260;-70
2021/07/30 00:08:58;;;;;;;2.30;2.10;;;24.70;54.40;;;;;;5104237;28;20684;-70
2021/07/30 00:11:29;;;;;;;2.30;2.13;;;24.70;54.40;;;;;;5101261;28;20239;-70
2021/07/30 00:13:57;;;;;;;2.00;1.80;;;24.70;54.40;;;;;;5105748;28;20200;-70
2021/07/30 00:16:30;;;;;;;2.17;1.97;;;24.70;54.50;;;;;;5097828;28;20212;-70
2021/07/30 00:18:59;;;;;;;2.30;2.10;;;24.60;54.40;;;;;;5092222;28;20201;-70
2021/07/30 00:21:29;;;;;;;2.13;2.00;;;24.60;54.40;;;;;;5101226;28;20645;-70
2021/07/30 00:24:00;;;;;;;2.20;2.00;;;24.60;54.40;;;;;;5105957;28;20223;-70
2021/07/30 00:26:29;;;;;;;1.87;1.77;;;24.70;54.40;;;;;;5101276;28;20205;-70
2021/07/30 00:28:59;;;;;;;1.87;1.77;;;24.60;54.40;;;;;;5102721;28;20200;-70
2021/07/30 00:31:30;;;;;;;1.93;1.83;;;24.60;54.40;;;;;;5105613;28;20184;-70
2021/07/30 00:34:10;;;;;;;1.97;1.87;;;24.60;54.40;;;;;;5097062;28;20634;-70
2021/07/30 00:36:40;;;;;;;2.10;1.90;;;24.60;54.50;;;;;;5103014;28;20193;-70
2021/07/30 00:39:08;;;;;;;1.93;1.83;;;24.60;54.40;;;;;;5101210;28;20233;-70
2021/07/30 00:41:42;;;;;;;1.97;1.87;;;24.60;54.40;;;;;;5105445;28;20688;-70
2021/07/30 00:44:12;;;;;;;2.27;2.07;;;24.60;54.50;;;;;;5103406;28;20209;-70
2021/07/30 00:46:44;;;;;;;2.37;2.00;;;24.50;54.40;;;;;;5104687;28;20219;-70
2021/07/30 00:49:15;;;;;;;2.30;2.10;;;24.60;54.50;;;;;;5099589;28;20227;-70
2021/07/30 00:51:44;;;;;;;2.47;2.10;;;24.50;54.50;;;;;;5109225;28;20189;-70
2021/07/30 00:54:13;;;;;;;2.23;2.03;;;24.50;54.50;;;;;;5100096;28;20211;-70
2021/07/30 00:56:45;;;;;;;1.83;1.73;;;24.50;54.50;;;;;;5095575;28;20196;-70
2021/07/30 00:59:17;;;;;;;2.50;2.30;;;24.50;54.50;;;;;;5105484;28;20319;-70
2021/07/30 01:01:46;;;;;;;2.43;2.30;;;24.50;54.50;;;;;;5093734;28;20204;-70
2021/07/30 01:04:16;;;;;;;1.80;1.70;;;24.50;54.50;;;;;;5101881;28;20222;-70
2021/07/30 01:06:46;;;;;;;2.57;2.37;;;24.50;54.50;;;;;;5105391;28;20245;-70
2021/07/30 01:09:18;;;;;;;2.20;2.00;;;24.50;54.50;;;;;;5087818;28;20549;-70
2021/07/30 01:11:50;;;;;;;2.23;2.03;;;24.50;54.50;;;;;;5101697;28;20200;-70
2021/07/30 01:14:22;;;;;;;2.30;2.07;;;24.50;54.50;;;;;;5102271;28;20200;-71
2021/07/30 01:16:55;;;;;;;2.20;2.00;;;24.50;54.50;;;;;;5105898;28;20213;-70
2021/07/30 01:19:25;;;;;;;2.53;2.20;;;24.50;54.50;;;;;;5093243;28;20571;-70
2021/07/30 01:21:59;;;;;;;2.37;2.10;;;24.50;54.50;;;;;;5103768;28;20210;-70
2021/07/30 01:24:29;;;;;;;2.50;2.30;;;24.50;54.50;;;;;;5107168;28;20188;-70
2021/07/30 01:27:00;;;;;;;2.23;2.10;;;24.40;54.50;;;;;;5102783;28;20217;-70
2021/07/30 01:29:33;;;;;;;2.17;2.00;;;24.50;54.50;;;;;;5099469;28;20201;-70
2021/07/30 01:32:03;;;;;;;2.07;1.90;;;24.50;54.50;;;;;;5103017;28;20734;-70
2021/07/30 01:34:34;;;;;;;2.30;2.10;;;24.40;54.50;;;;;;5105997;28;20685;-70
2021/07/30 01:37:12;;;;;;;2.50;2.30;;;24.40;54.50;;;;;;5093608;28;20792;-70
2021/07/30 01:39:41;;;;;;;2.50;2.30;;;24.40;54.50;;;;;;5107461;28;20381;-70
2021/07/30 01:42:13;;;;;;;2.53;2.30;;;24.40;54.50;;;;;;5104458;28;20184;-70
2021/07/30 01:44:43;;;;;;;2.10;2.00;;;24.40;54.50;;;;;;5108316;28;20877;-70
2021/07/30 01:47:13;;;;;;;2.20;2.00;;;24.40;54.50;;;;;;5097306;28;20181;-70
2021/07/30 01:49:44;;;;;;;2.30;2.10;;;24.40;54.60;;;;;;5103169;28;20212;-70
2021/07/30 01:52:25;;;;;;;1.90;1.80;;;24.40;54.50;;;;;;5096967;28;20463;-70
2021/07/30 01:54:57;;;;;;;2.10;2.00;;;24.40;54.50;;;;;;5103447;28;20193;-70
2021/07/30 01:57:33;;;;;;;2.33;2.13;;;24.40;54.50;;;;;;5109591;28;20621;-70
2021/07/30 02:00:05;;;;;;;2.53;2.33;;;24.40;54.50;;;;;;5099126;28;20197;-70
2021/07/30 02:02:36;;;;;;;2.07;1.93;;;24.40;54.60;;;;;;5110660;28;20199;-70
2021/07/30 02:05:09;;;;;;;2.50;2.30;;;24.40;54.60;;;;;;5099984;28;20214;-70
2021/07/30 02:07:41;;;;;;;2.43;2.07;;;24.40;54.50;;;;;;5105383;28;20202;-70
2021/07/30 02:10:12;;;;;;;2.03;1.90;;;24.40;54.60;;;;;;5107689;28;20511;-70
2021/07/30 02:15:38;;;;;;;1.93;1.83;;;24.30;54.50;;;;;;5107890;28;20641;-69
2021/07/30 02:18:10;;;;;;;2.00;1.90;;;24.30;54.60;;;;;;5098975;28;20278;-69
2021/07/30 02:20:39;;;;;;;2.27;2.00;;;24.30;54.50;;;;;;5107509;28;20220;-69
2021/07/30 02:23:07;;;;;;;2.57;2.37;;;24.30;55.20;;;;;;5104997;28;20603;-69
2021/07/30 02:25:51;;;;;;;2.40;2.20;;;24.30;54.60;;;;;;5094922;28;20224;-69
2021/07/30 02:28:20;;;;;;;2.30;2.13;;;24.30;54.60;;;;;;5101901;28;20605;-70
2021/07/30 02:30:51;;;;;;;2.00;1.90;;;24.30;54.60;;;;;;5102576;28;20287;-69
2021/07/30 02:33:22;;;;;;;2.00;1.90;;;24.30;54.60;;;;;;5104011;28;20200;-69
2021/07/30 02:35:51;;;;;;;2.43;2.10;;;24.30;54.60;;;;;;5105967;28;20630;-69
2021/07/30 02:38:27;;;;;;;2.30;2.10;;;24.30;54.60;;;;;;5101583;28;20514;-69
2021/07/30 02:40:57;;;;;;;2.20;2.00;;;24.30;54.60;;;;;;5101094;28;20235;-69
2021/07/30 02:43:29;;;;;;;2.23;2.13;;;24.30;54.60;;;;;;5103959;28;20192;-69
2021/07/30 02:46:03;;;;;;;2.30;2.10;;;24.30;54.60;;;;;;5100703;28;20204;-69
2021/07/30 02:48:33;;;;;;;2.60;2.30;;;24.30;54.60;;;;;;5100376;28;20204;-69
2021/07/30 02:51:03;;;;;;;2.40;2.20;;;24.30;54.60;;;;;;5102956;28;20677;-69
2021/07/30 02:53:36;;;;;;;2.13;1.97;;;24.30;54.60;;;;;;5080701;28;20199;-69
2021/07/30 02:56:09;;;;;;;2.47;2.27;;;24.30;54.60;;;;;;5106252;28;20601;-69
2021/07/30 02:58:38;;;;;;;2.20;2.00;;;24.30;54.60;;;;;;5107638;28;20189;-70
2021/07/30 03:01:10;;;;;;;2.30;2.10;;;24.30;54.60;;;;;;5101576;28;20207;-69
2021/07/30 03:03:40;;;;;;;2.23;2.10;;;24.20;54.60;;;;;;5106629;28;20192;-69
2021/07/30 03:06:12;;;;;;;2.17;2.07;;;24.30;54.60;;;;;;5097252;28;20689;-69
2021/07/30 03:08:42;;;;;;;2.43;2.23;;;24.20;54.60;;;;;;5102215;28;20835;-69
2021/07/30 03:11:12;;;;;;;2.50;2.30;;;24.20;55.20;;;;;;5101364;28;20181;-69
2021/07/30 03:13:49;;;;;;;3.13;2.43;;;24.20;54.60;;;;;;5104829;28;20192;-69
2021/07/30 03:16:19;;;;;;;2.90;2.40;;;24.30;54.60;;;;;;5106401;28;20326;-69
2021/07/30 03:18:49;;;;;;;2.20;2.00;;;24.20;54.60;;;;;;5101234;28;20188;-69
2021/07/30 03:21:23;;;;;;;2.40;2.20;;;24.20;54.60;;;;;;5097707;28;20196;-69
2021/07/30 03:23:54;;;;;;;2.63;2.17;;;24.20;54.60;;;;;;5101127;28;20696;-70
2021/07/30 03:26:25;;;;;;;2.50;2.23;;;24.20;54.60;;;;;;5109158;28;20224;-70
2021/07/30 03:28:53;;;;;;;2.40;2.20;;;24.20;54.60;;;;;;5104539;28;20205;-70
2021/07/30 03:31:22;;;;;;;1.83;1.73;;;24.20;54.60;;;;;;5103603;28;20207;-70
2021/07/30 03:33:51;;;;;;;2.43;2.07;;;24.20;54.60;;;;;;5101291;28;20517;-70
2021/07/30 03:36:21;;;;;;;2.37;2.17;;;24.20;54.60;;;;;;5089681;28;20196;-70
2021/07/30 03:38:51;;;;;;;2.60;2.40;;;24.20;54.60;;;;;;5103728;28;20192;-70
2021/07/30 03:41:24;;;;;;;2.43;2.23;;;24.10;54.60;;;;;;5105378;28;20196;-69
2021/07/30 03:43:53;;;;;;;2.10;1.90;;;24.20;54.60;;;;;;5094234;28;20518;-70
2021/07/30 03:46:22;;;;;;;2.30;2.10;;;24.20;54.60;;;;;;5101179;28;20224;-70
2021/07/30 03:48:53;;;;;;;2.17;1.97;;;24.20;54.60;;;;;;5102905;28;20304;-70
2021/07/30 03:51:24;;;;;;;2.30;2.10;;;24.20;54.60;;;;;;5102339;28;20204;-70
2021/07/30 03:53:55;;;;;;;2.57;2.37;;;24.20;54.60;;;;;;5090011;28;20203;-69
2021/07/30 03:56:24;;;;;;;2.80;2.50;;;24.20;54.60;;;;;;5106675;28;20197;-70
2021/07/30 03:58:56;;;;;;;2.87;2.17;;;24.20;54.60;;;;;;5098820;28;20212;-71
2021/07/30 04:01:26;;;;;;;2.20;2.00;;;24.10;54.60;;;;;;5111813;28;20211;-70
2021/07/30 04:03:57;;;;;;;2.07;1.87;;;24.10;54.60;;;;;;5105055;28;20212;-70
2021/07/30 04:06:27;;;;;;;2.50;2.30;;;24.10;54.60;;;;;;5097209;28;20702;-71
2021/07/30 04:08:57;;;;;;;2.20;2.00;;;24.10;54.60;;;;;;5093480;28;20320;-71
2021/07/30 04:11:27;;;;;;;2.53;2.33;;;24.10;54.60;;;;;;5095535;28;20200;-71
2021/07/30 04:13:56;;;;;;;2.50;2.30;;;24.10;54.50;;;;;;5106724;28;20211;-71
2021/07/30 04:16:30;;;;;;;2.40;2.20;;;24.20;54.60;;;;;;5100848;28;20195;-70
2021/07/30 04:19:04;;;;;;;2.47;2.27;;;24.10;54.50;;;;;;5103624;28;20688;-70
2021/07/30 04:21:38;;;;;;;2.30;2.10;;;24.10;54.50;;;;;;5085067;28;20197;-72
2021/07/30 04:24:07;;;;;;;2.40;2.20;;;24.10;54.50;;;;;;5089755;28;20233;-72
2021/07/30 04:26:37;;;;;;;3.00;2.60;;;24.10;54.50;;;;;;5108806;28;20224;-72
2021/07/30 04:29:04;;;;;;;2.70;2.47;;;24.10;54.50;;;;;;5106190;28;20283;-72
2021/07/30 04:31:42;;;;;;;2.70;2.50;;;24.00;54.40;;;;;;5098614;28;20194;-72
2021/07/30 04:34:13;;;;;;;3.70;2.73;;;24.10;54.40;;;;;;5099739;28;20196;-71
2021/07/30 04:36:44;;;;;;;2.27;2.10;;;24.10;54.40;;;;;;5107873;28;20200;-72
2021/07/30 04:39:15;;;;;;;2.50;2.30;;;24.10;54.40;;;;;;5102343;28;20233;-72
2021/07/30 04:41:46;;;;;;;3.23;2.30;;;24.00;54.30;;;;;;5108199;28;20268;-72
2021/07/30 04:44:14;;;;;;;2.50;2.30;;;24.10;54.30;;;;;;5101297;28;20207;-72
2021/07/30 04:46:45;;;;;;;2.33;2.13;;;24.10;54.40;;;;;;5101038;28;20817;-70
2021/07/30 04:49:17;;;;;;;2.57;2.37;;;24.10;54.30;;;;;;5101777;28;20200;-70
2021/07/30 04:52:00;;;;;;;2.50;2.27;;;24.10;54.30;;;;;;5105892;28;20205;-72
2021/07/30 04:54:29;;;;;;;2.67;2.30;;;24.00;54.30;;;;;;5090177;28;20188;-72
2021/07/30 04:57:00;;;;;;;2.17;1.90;;;24.10;54.30;;;;;;5103462;28;20204;-71
2021/07/30 04:59:30;;;;;;;2.40;1.97;;;24.00;54.20;;;;;;5093347;28;20277;-72
2021/07/30 05:02:09;;;;;;;2.93;2.40;;;24.00;54.30;;;;;;5107504;28;20215;-71
2021/07/30 05:04:53;;;;;;;2.40;2.20;;;24.00;54.20;;;;;;5101526;28;20212;-71
2021/07/30 05:07:25;;;;;;;2.57;2.37;;;24.00;54.20;;;;;;5101217;28;20216;-70
2021/07/30 05:09:56;;;;;;;2.33;1.93;;;24.00;54.20;;;;;;5103762;28;20193;-70
2021/07/30 05:12:30;;;;;;;2.93;2.73;;;24.00;54.20;;;;;;5097936;28;20197;-70
2021/07/30 05:15:03;;;;;;;3.80;2.70;;;24.00;54.20;;;;;;5108207;28;20292;-70
2021/07/30 05:17:32;;;;;;;2.60;2.40;;;24.00;54.10;;;;;;5099817;28;20189;-71
2021/07/30 05:20:10;;;;;;;2.60;2.40;;;24.00;54.10;;;;;;5099167;28;20193;-69
2021/07/30 05:22:39;;;;;;;4.43;2.70;;;24.00;54.10;;;;;;5102960;28;20187;-72
2021/07/30 05:25:11;;;;;;;2.63;2.40;;;24.00;54.10;;;;;;5108428;28;20824;-71
2021/07/30 05:27:45;;;;;;;2.50;2.30;;;24.00;54.10;;;;;;5101450;28;20681;-71
2021/07/30 05:30:14;;;;;;;3.00;2.53;;;24.00;54.10;;;;;;5106514;28;20857;-72
2021/07/30 05:32:44;;;;;;;3.10;2.47;;;24.00;54.00;;;;;;5106016;28;20653;-71
2021/07/30 05:35:16;;;;;;;4.03;2.50;;;24.00;54.10;;;;;;5104498;28;20265;-70
2021/07/30 05:37:47;;;;;;;3.33;2.67;;;24.00;54.10;;;;;;5096958;28;20208;-70
2021/07/30 05:40:14;;;;;;;3.80;2.33;;;24.00;54.00;;;;;;5101165;28;20236;-70
2021/07/30 05:42:43;;;;;;;2.50;2.30;;;24.00;54.00;;;;;;5107945;28;20193;-70
2021/07/30 05:45:15;;;;;;;2.60;2.40;;;24.00;53.90;;;;;;5103614;28;20211;-71
2021/07/30 05:47:53;;;;;;;2.90;2.30;;;24.00;54.00;;;;;;5109063;28;20229;-71
2021/07/30 05:50:56;;;;;;;2.63;2.23;;;24.00;54.00;;;;;;5098518;28;20193;-71
2021/07/30 05:53:26;;;;;;;3.13;2.57;;;24.00;53.90;;;;;;5105820;28;20193;-71
2021/07/30 05:55:56;;;;;;;2.37;2.17;;;24.00;54.00;;;;;;5098974;28;20860;-71
2021/07/30 05:58:27;;;;;;;2.60;2.40;;;24.00;53.90;;;;;;5100372;28;20402;-72
2021/07/30 06:00:56;;;;;;;2.40;2.20;;;24.00;53.90;;;;;;5106497;28;20655;-72
2021/07/30 06:03:28;;;;;;;2.80;2.50;;;24.00;53.80;;;;;;5107174;28;20213;-72
2021/07/30 06:05:57;;;;;;;3.40;2.37;;;24.00;53.80;;;;;;5106328;28;20617;-72
2021/07/30 06:08:30;;;;;;;3.13;2.83;;;24.00;53.80;;;;;;5100513;28;20193;-71
2021/07/30 06:11:04;;;;;;;2.57;2.20;;;24.00;53.80;;;;;;5107285;28;20535;-70
2021/07/30 06:13:35;;;;;;;2.53;2.33;;;24.00;53.90;;;;;;5098304;28;20215;-70
2021/07/30 06:16:11;;;;;;;2.40;2.20;;;24.00;53.90;;;;;;5091350;28;20193;-70
2021/07/30 06:19:02;;;;;;;2.40;2.20;;;24.00;53.90;;;;;;5101710;28;20283;-70
2021/07/30 06:21:34;;;;;;;2.93;2.27;;;24.00;53.90;;;;;;5102888;28;20200;-70
2021/07/30 06:24:08;;;;;;;2.13;1.93;;;24.00;53.90;;;;;;5092390;28;20204;-70
2021/07/30 06:26:39;;;;;;;2.57;2.30;;;24.00;53.90;;;;;;5099783;28;20549;-70
2021/07/30 06:29:11;;;;;;;2.30;2.10;;;24.00;53.90;;;;;;5090876;28;20250;-70
2021/07/30 06:31:42;;;;;;;2.13;1.97;;;24.00;53.90;;;;;;5101853;28;20669;-70
2021/07/30 06:34:14;;;;;;;3.27;2.40;;;24.00;53.90;;;;;;5101983;28;20247;-70
2021/07/30 06:36:45;;;;;;;2.00;1.90;;;24.00;53.90;;;;;;5105475;28;20829;-70
2021/07/30 06:39:15;;;;;;;2.50;2.30;;;24.00;53.90;;;;;;5104298;28;20228;-70
2021/07/30 06:41:42;;;;;;;3.43;2.33;;;24.00;53.90;;;;;;5100798;28;20802;-70
2021/07/30 06:44:12;;;;;;;2.73;2.33;;;24.00;53.90;;;;;;5095362;28;20211;-70
2021/07/30 06:46:41;;;;;;;2.37;2.03;;;24.00;53.80;;;;;;5096930;28;20233;-71
2021/07/30 06:49:16;;;;;;;2.20;2.00;;;24.00;53.80;;;;;;5106527;28;20626;-71
2021/07/30 06:51:46;;;;;;;2.37;2.17;;;24.00;53.80;;;;;;5095761;28;20566;-71
2021/07/30 06:54:17;;;;;;;3.40;2.20;;;24.00;53.80;;;;;;5095772;28;20208;-71
2021/07/30 06:56:48;;;;;;;2.43;2.10;;;24.00;53.80;;;;;;5100043;28;20244;-71
2021/07/30 06:59:19;;;;;;;2.17;1.97;;;24.00;53.80;;;;;;5106013;28;20200;-72
2021/07/30 07:01:51;;;;;;;2.30;2.10;;;24.00;53.80;;;;;;5100980;28;20196;-70
2021/07/30 07:04:21;;;;;;;2.80;2.07;;;24.00;53.80;;;;;;5094587;28;20672;-70
2021/07/30 07:06:50;;;;;;;2.70;2.33;;;24.00;53.80;;;;;;5102610;28;20215;-70
2021/07/30 07:09:20;;;;;;;2.20;2.00;;;24.00;53.80;;;;;;5104166;28;20231;-70
2021/07/30 07:11:50;;;;;;;2.73;2.30;;;24.00;53.80;;;;;;5101553;28;20563;-70
2021/07/30 07:14:20;;;;;;;2.70;2.30;;;24.10;53.90;;;;;;5097258;28;20251;-70
2021/07/30 07:16:51;;;;;;;3.50;2.37;;;24.10;53.80;;;;;;5105665;28;20201;-71
2021/07/30 07:19:22;;;;;;;3.37;2.13;;;24.10;53.80;;;;;;5099211;28;20233;-72
2021/07/30 07:21:51;;;;;;;2.30;2.10;;;24.10;53.80;;;;;;5106029;28;20196;-71
2021/07/30 07:24:24;;;;;;;2.20;2.00;;;24.10;53.80;;;;;;5098124;28;20301;-72
2021/07/30 07:26:53;;;;;;;2.17;1.97;;;24.00;53.80;;;;;;5106761;28;20844;-72
2021/07/30 07:29:27;;;;;;;2.20;2.00;;;24.10;53.80;;;;;;5095749;28;20212;-72
2021/07/30 07:31:56;;;;;;;2.33;2.13;;;24.10;53.80;;;;;;5101204;28;20196;-70
2021/07/30 07:34:27;;;;;;;2.30;2.10;;;24.00;53.80;;;;;;5098723;28;20226;-70
2021/07/30 07:36:58;;;;;;;2.30;1.80;;;24.10;53.80;;;;;;5102600;28;20683;-72
2021/07/30 07:39:27;;;;;;;1.97;1.87;;;24.10;53.80;;;;;;5102761;28;20234;-71
2021/07/30 07:42:00;;;;;;;2.33;2.00;;;24.10;53.80;;;;;;5103022;28;20204;-72
2021/07/30 07:44:36;;;;;;;3.20;2.40;;;24.10;53.80;;;;;;5089568;28;20204;-71
2021/07/30 07:47:05;;;;;;;4.27;2.00;;;24.10;53.70;;;;;;5099276;28;20212;-71
2021/07/30 07:49:36;;;;;;;2.67;2.00;;;24.10;53.80;;;;;;5097275;28;20257;-71
2021/07/30 07:52:05;;;;;;;2.23;1.83;;;24.10;53.80;;;;;;5098032;28;20220;-71
2021/07/30 07:54:57;;;;;;;2.10;1.90;;;24.10;53.80;;;;;;5094596;28;20225;-73
2021/07/30 07:57:26;;;;;;;3.07;1.90;;;24.10;53.80;;;;;;5092353;28;20201;-71
2021/07/30 07:59:55;;;;;;;2.27;1.90;;;24.10;53.80;;;;;;5094420;28;20273;-71
2021/07/30 08:02:25;;;;;;;2.27;2.07;;;24.10;53.70;;;;;;5097033;28;20196;-72
2021/07/30 08:04:57;;;;;;;2.53;2.30;;;24.10;53.80;;;;;;5102055;28;20823;-72
2021/07/30 08:07:30;;;;;;;2.17;1.97;;;24.10;53.60;;;;;;5100804;28;20736;-71
2021/07/30 08:10:00;;;;;;;3.83;2.00;;;24.10;53.70;;;;;;5101154;28;20225;-71
2021/07/30 08:12:33;;;;;;;2.20;2.00;;;24.10;53.80;;;;;;5101861;28;20628;-72
2021/07/30 08:15:04;;;;;;;2.57;2.20;;;24.10;53.60;;;;;;5103232;28;20216;-71
2021/07/30 08:17:39;;;;;;;2.17;1.90;;;24.10;53.60;;;;;;5106714;28;20200;-70
2021/07/30 08:20:09;;;;;;;4.03;2.03;;;24.10;53.70;;;;;;5098281;28;20205;-71
2021/07/30 08:22:42;;;;;;;3.17;1.97;;;24.10;53.60;;;;;;5095518;28;20219;-73
2021/07/30 08:25:13;;;;;;;2.67;2.00;;;24.10;53.70;;;;;;5095904;28;20193;-72
2021/07/30 08:27:43;;;;;;;2.33;1.80;;;24.20;53.70;;;;;;5108436;28;20216;-72
2021/07/30 08:30:14;;;;;;;2.07;1.87;;;24.10;53.70;;;;;;5100594;28;20614;-72
2021/07/30 08:32:42;;;;;;;1.93;1.77;;;24.20;53.70;;;;;;5105560;28;20232;-71
2021/07/30 08:35:12;;;;;;;2.60;1.90;;;24.10;53.70;;;;;;5098563;28;20539;-72
2021/07/30 08:37:41;;;;;;;2.40;2.00;;;24.20;53.60;;;;;;5103170;28;20298;-71
2021/07/30 08:40:13;;;;;;;2.17;1.97;;;24.10;53.50;;;;;;5099577;28;20232;-71
2021/07/30 08:42:41;;;;;;;2.77;2.30;;;24.20;53.60;;;;;;5102659;28;20209;-71
2021/07/30 08:45:09;;;;;;;1.73;1.60;;;24.10;53.40;;;;;;5095279;28;20212;-72
2021/07/30 08:47:43;;;;;;;2.73;2.17;;;24.20;53.40;;;;;;5104083;28;20231;-72
2021/07/30 08:50:15;;;;;;;2.87;2.07;;;24.10;53.40;;;;;;5105568;28;20714;-72
2021/07/30 08:52:54;;;;;;;2.27;1.80;;;24.20;53.30;;;;;;5099859;28;20625;-72
2021/07/30 08:55:32;;;;;;;2.37;1.90;;;24.20;53.40;;;;;;5089419;28;20608;-71
2021/07/30 08:58:15;;;;;;;2.83;2.20;;;24.20;53.30;;;;;;5096863;28;20235;-70
2021/07/30 09:00:45;;;;;;;1.87;1.70;;;24.20;53.30;;;;;;5103694;28;20305;-70
2021/07/30 09:03:14;;;;;;;2.67;1.80;;;24.20;53.40;;;;;;5097170;28;20228;-70
2021/07/30 09:05:47;;;;;;;2.23;1.70;;;24.20;53.30;;;;;;5106236;28;20242;-70
2021/07/30 09:08:24;;;;;;;2.53;1.80;;;24.30;53.40;;;;;;5090201;28;20212;-70
2021/07/30 09:10:54;;;;;;;2.17;1.97;;;24.20;53.30;;;;;;5102043;27;20239;-71
2021/07/30 09:13:32;;;;;;;1.67;1.57;;;24.30;53.40;;;;;;5104168;28;20223;-71
2021/07/30 09:16:11;;;;;;;2.03;1.80;;;24.20;53.30;;;;;;5107056;28;20196;-72
2021/07/30 09:18:47;;;;;;;2.00;1.80;;;24.30;53.40;;;;;;5109043;28;20242;-72
2021/07/30 09:21:24;;;;;;;2.10;1.90;;;24.30;53.40;;;;;;5100535;28;20711;-71
2021/07/30 09:24:10;;;;;;;1.70;1.60;;;24.30;53.40;;;;;;5101317;28;20235;-71
2021/07/30 09:26:53;;;;;;;2.30;1.50;;;24.30;53.50;;;;;;5102435;28;20207;-72
2021/07/30 09:29:24;;;;;;;1.90;1.70;;;24.30;53.50;;;;;;5100165;28;20770;-71
2021/07/30 09:32:16;;;;;;;1.93;1.70;;;24.30;53.60;;;;;;5104344;28;20204;-71
2021/07/30 09:34:48;;;;;;;2.43;1.77;;;24.30;53.50;;;;;;5107813;28;20208;-71
2021/07/30 09:37:26;;;;;;;2.47;1.90;;;24.30;54.20;;;;;;5102994;28;20781;-71
2021/07/30 09:39:56;;;;;;;3.47;2.57;;;24.30;53.50;;;;;;5101362;28;20259;-71
2021/07/30 09:42:35;;;;;;;1.63;1.53;;;24.30;53.50;;;;;;5107012;28;20199;-70
2021/07/30 09:45:13;;;;;;;2.10;1.90;;;24.30;53.40;;;;;;5098166;28;20719;-71
2021/07/30 09:47:53;;;;;;;2.50;1.77;;;24.30;53.50;;;;;;5103688;28;20251;-72
2021/07/30 09:50:25;;;;;;;2.13;1.90;;;24.40;53.60;;;;;;5099517;28;20195;-71
2021/07/30 09:53:10;;;;;;;1.60;1.50;;;24.40;53.60;;;;;;5108648;28;20312;-71
2021/07/30 09:55:45;;;;;;;1.83;1.70;;;24.40;53.50;;;;;;5103178;28;20188;-72
2021/07/30 09:58:18;;;;;;;2.20;2.00;;;24.40;53.60;;;;;;5100182;28;20235;-72
2021/07/30 10:00:51;;;;;;;1.90;1.73;;;24.40;53.50;;;;;;5105449;28;20192;-71
2021/07/30 10:03:27;;;;;;;2.37;1.87;;;24.40;53.50;;;;;;5103923;28;20192;-71
2021/07/30 10:06:01;;;;;;;1.90;1.80;;;24.40;53.50;;;;;;5091887;28;20282;-71
2021/07/30 10:08:54;;;;;;;1.93;1.77;;;24.50;53.50;;;;;;5103334;28;20295;-71
2021/07/30 10:11:49;;;;;;;3.00;2.20;;;24.50;53.50;;;;;;5094640;28;20192;-71
2021/07/30 10:14:25;;;;;;;1.83;1.70;;;24.50;53.50;;;;;;5102211;28;20184;-71
2021/07/30 10:17:02;;;;;;;1.73;1.63;;;24.50;53.50;;;;;;5109307;28;20242;-71
2021/07/30 10:19:32;;;;;;;2.33;1.87;;;24.50;53.50;;;;;;5093470;28;20216;-71
2021/07/30 10:22:07;;;;;;;1.97;1.80;;;24.50;53.50;;;;;;5104261;28;20681;-71
2021/07/30 10:24:44;;;;;;;2.70;2.00;;;24.50;53.50;;;;;;5105924;28;20207;-71
2021/07/30 10:27:18;;;;;;;1.60;1.50;;;24.60;53.50;;;;;;5106891;28;20645;-71
2021/07/30 10:30:10;;;;;;;2.07;1.87;;;24.50;53.60;;;;;;5107934;28;20284;-71
2021/07/30 10:32:57;;;;;;;1.97;1.77;;;24.60;54.00;;;;;;5095143;28;20200;-73
2021/07/30 10:35:30;;;;;;;2.43;1.90;;;24.60;53.60;;;;;;5097800;28;20218;-71
2021/07/30 10:38:20;;;;;;;2.60;2.40;;;24.60;53.60;;;;;;5102664;28;20669;-71
2021/07/30 10:41:19;;;;;;;2.90;2.17;;;24.60;53.60;;;;;;5104265;28;20228;-71
2021/07/30 10:44:03;;;;;;;1.80;1.70;;;24.60;53.60;;;;;;5104795;28;20672;-71
2021/07/30 10:46:32;;;;;;;2.10;1.90;;;24.60;53.60;;;;;;5099288;28;20224;-71
2021/07/30 10:49:48;;;;;;;2.67;2.00;;;24.60;53.70;;;;;;5106374;28;20216;-72
2021/07/30 10:52:28;;;;;;;2.43;2.13;;;24.70;53.70;;;;;;5101072;28;20645;-71
2021/07/30 10:54:58;;;;;;;2.50;2.30;;;24.70;53.70;;;;;;5104756;28;20201;-71
2021/07/30 10:57:58;;;;;;;2.77;2.10;;;24.70;53.70;;;;;;5102962;28;20220;-71
2021/07/30 11:00:54;;;;;;;3.33;2.20;;;24.70;53.70;;;;;;5036674;28;20268;-71
2021/07/30 11:03:26;;;;;;;2.03;1.80;;;24.70;53.90;;;;;;5105474;28;20227;-71
2021/07/30 11:06:15;;;;;;;2.50;1.90;;;24.70;53.80;;;;;;5100447;28;20188;-71
2021/07/30 11:09:05;;;;;;;1.80;1.70;;;24.80;53.90;;;;;;5104756;28;20311;-72
2021/07/30 11:11:58;;;;;;;2.23;2.03;;;24.70;54.00;;;;;;5099575;28;20200;-71
2021/07/30 11:14:25;;;;;;;2.20;2.00;;;24.80;54.10;;;;;;5100571;28;20699;-71
2021/07/30 11:17:10;;;;;;;2.27;2.07;;;24.80;54.20;;;;;;5105821;28;20203;-72
2021/07/30 11:19:49;;;;;;;2.90;2.40;;;24.80;54.10;;;;;;5101872;28;20205;-72
2021/07/30 11:22:22;;;;;;;2.47;2.30;;;24.80;54.00;;;;;;5108202;28;20192;-72
2021/07/30 11:24:53;;;;;;;2.50;2.30;;;24.80;54.00;;;;;;5092621;28;20254;-72
2021/07/30 11:27:25;;;;;;;2.33;2.23;;;24.80;54.10;;;;;;5094798;28;20249;-71
2021/07/30 11:29:55;;;;;;;2.30;2.10;;;24.90;54.10;;;;;;5095459;28;20196;-72
2021/07/30 11:32:30;;;;;;;1.93;1.83;;;24.90;54.10;;;;;;5099766;28;20711;-71
2021/07/30 11:35:09;;;;;;;2.83;2.33;;;24.90;54.10;;;;;;5089390;28;20197;-71
2021/07/30 11:37:39;;;;;;;2.53;2.23;;;24.90;54.10;;;;;;5095152;28;20559;-71
2021/07/30 11:40:16;;;;;;;2.30;2.10;;;24.90;54.10;;;;;;5105767;28;20769;-71
2021/07/30 11:43:08;;;;;;;2.60;2.20;;;24.90;54.20;;;;;;5096646;28;20279;-70
2021/07/30 11:45:38;;;;;;;2.17;1.97;;;24.90;54.50;;;;;;5079773;28;20203;-71
2021/07/30 11:48:14;;;;;;;2.20;2.00;;;24.90;54.20;;;;;;5096688;28;20223;-71
2021/07/30 11:50:59;;;;;;;2.93;2.10;;;25.00;54.20;;;;;;5107904;28;20292;-71
2021/07/30 11:53:30;;;;;;;2.40;2.20;;;25.00;54.20;;;;;;5103723;28;20176;-71
2021/07/30 11:56:06;;;;;;;2.10;2.00;;;25.00;54.20;;;;;;5098936;28;20805;-71
2021/07/30 11:58:58;;;;;;;2.80;2.27;;;25.00;54.30;;;;;;5106109;28;20219;-71
2021/07/30 12:01:34;;;;;;;2.20;2.00;;;25.00;54.20;;;;;;5086616;28;20282;-72
2021/07/30 12:04:15;;;;;;;2.27;2.07;;;25.00;54.30;;;;;;5105684;28;20220;-72
2021/07/30 12:06:53;;;;;;;2.57;2.37;;;25.00;54.30;;;;;;5098237;28;20427;-72
2021/07/30 12:09:27;;;;;;;2.33;2.20;;;25.10;54.40;;;;;;5107335;28;20227;-72
2021/07/30 12:12:05;;;;;;;2.10;1.93;;;25.10;54.20;;;;;;5088484;28;20222;-72
2021/07/30 12:14:33;;;;;;;2.17;1.97;;;25.00;54.30;;;;;;5105992;28;20194;-72
2021/07/30 12:17:07;;;;;;;2.07;1.97;;;25.10;54.40;;;;;;5099137;28;20193;-72
2021/07/30 12:19:40;;;;;;;2.47;2.17;;;25.10;54.30;;;;;;5083616;28;20215;-72
2021/07/30 12:22:11;;;;;;;2.13;2.00;;;25.10;54.40;;;;;;5097907;28;20193;-71
2021/07/30 12:24:49;;;;;;;2.57;2.10;;;25.10;54.40;;;;;;5093871;28;20193;-71
2021/07/30 12:27:24;;;;;;;2.30;2.10;;;25.10;54.40;;;;;;5106111;28;20188;-71
2021/07/30 12:29:56;;;;;;;2.47;2.27;;;25.20;54.50;;;;;;5099417;28;20232;-71
2021/07/30 12:32:36;;;;;;;2.50;2.30;;;25.10;54.40;;;;;;5098310;28;20192;-71
2021/07/30 12:35:17;;;;;;;2.40;2.20;;;25.20;54.40;;;;;;5094132;28;20200;-72
2021/07/30 12:38:07;;;;;;;2.00;1.90;;;25.10;54.40;;;;;;5099356;28;20261;-72
2021/07/30 12:40:39;;;;;;;2.53;2.33;;;25.20;54.50;;;;;;5098564;28;20374;-72
2021/07/30 12:43:21;;;;;;;2.17;2.00;;;25.20;54.50;;;;;;5104092;28;20269;-73
2021/07/30 12:45:53;;;;;;;1.83;1.73;;;25.20;54.50;;;;;;5108287;28;20204;-72
2021/07/30 12:48:24;;;;;;;2.17;1.97;;;25.20;54.50;;;;;;5108931;28;20845;-72
2021/07/30 12:51:27;;;;;;;2.37;2.17;;;25.20;54.40;;;;;;5116822;28;20192;-72
2021/07/30 12:54:10;;;;;;;2.23;2.03;;;25.20;54.40;;;;;;5116203;28;20275;-73
2021/07/30 12:57:07;;;;;;;2.67;2.47;;;25.20;54.40;;;;;;5119505;28;20211;-73
2021/07/30 12:59:59;;;;;;;2.20;2.07;;;25.20;54.40;;;;;;5114648;28;20755;-72
2021/07/30 13:02:37;;;;;;;2.57;2.37;;;25.20;54.40;;;;;;5107001;28;20749;-72
2021/07/30 13:05:17;;;;;;;2.53;2.33;;;25.30;54.50;;;;;;5112305;28;20192;-72
2021/07/30 13:07:46;;;;;;;2.20;2.10;;;25.30;54.50;;;;;;5101677;28;20633;-71
2021/07/30 13:10:18;;;;;;;2.10;2.00;;;25.20;54.40;;;;;;5118168;28;20204;-72
2021/07/30 13:12:49;;;;;;;2.50;2.30;;;25.30;54.40;;;;;;5104607;28;20211;-72
2021/07/30 13:15:18;;;;;;;2.73;1.80;;;25.30;54.40;;;;;;5102368;28;20200;-72
2021/07/30 13:17:48;;;;;;;2.53;2.33;;;25.30;54.40;;;;;;5110052;28;20181;-71
2021/07/30 13:20:17;;;;;;;2.30;2.10;;;25.30;54.30;;;;;;5117071;28;20197;-72
2021/07/30 13:22:56;;;;;;;2.40;2.20;;;25.30;54.40;;;;;;5116096;28;20219;-72
2021/07/30 13:25:28;;;;;;;2.53;2.33;;;25.30;54.30;;;;;;5114707;28;20196;-72